sensor_id;sensor_type;location;lat;lon;timestamp;temperature;humidity
20125;DHT22;10223;50.862;4.360;2023-05-29T00:01:24;15.50;99.90
20125;DHT22;10223;50.862;4.360;2023-05-29T00:03:51;15.60;99.90
20125;DHT22;10223;50.862;4.360;2023-05-29T00:06:19;15.60;99.90
20125;DHT22;10223;50.862;4.360;2023-05-29T00:08:46;15.40;99.90
20125;DHT22;10223;50.862;4.360;2023-05-29T00:11:14;15.40;99.90
20125;DHT22;10223;50.862;4.360;2023-05-29T00:13:41;15.20;99.90
20125;DHT22;10223;50.862;4.360;2023-05-29T00:16:08;15.20;99.90
20125;DHT22;10223;50.862;4.360;2023-05-29T00:18:36;15.10;99.90
20125;DHT22;10223;50.862;4.360;2023-05-29T00:21:10;15.00;99.90
20125;DHT22;10223;50.862;4.360;2023-05-29T00:23:37;15.00;99.90
20125;DHT22;10223;50.862;4.360;2023-05-29T00:26:04;15.00;99.90
20125;DHT22;10223;50.862;4.360;2023-05-29T00:28:33;14.90;99.90
20125;DHT22;10223;50.862;4.360;2023-05-29T00:31:00;14.90;99.90
20125;DHT22;10223;50.862;4.360;2023-05-29T00:33:27;14.90;99.90
20125;DHT22;10223;50.862;4.360;2023-05-29T00:35:54;14.80;99.90
20125;DHT22;10223;50.862;4.360;2023-05-29T00:38:21;14.80;99.90
20125;DHT22;10223;50.862;4.360;2023-05-29T00:40:48;14.70;99.90
20125;DHT22;10223;50.862;4.360;2023-05-29T00:43:15;14.60;99.90
20125;DHT22;10223;50.862;4.360;2023-05-29T00:45:43;14.60;99.90
20125;DHT22;10223;50.862;4.360;2023-05-29T00:48:10;14.50;99.90
20125;DHT22;10223;50.862;4.360;2023-05-29T00:50:37;14.50;99.90
20125;DHT22;10223;50.862;4.360;2023-05-29T00:53:05;14.50;99.90
20125;DHT22;10223;50.862;4.360;2023-05-29T00:55:33;14.50;99.90
20125;DHT22;10223;50.862;4.360;2023-05-29T00:58:01;14.50;99.90
20125;DHT22;10223;50.862;4.360;2023-05-29T01:00:28;14.40;99.90
20125;DHT22;10223;50.862;4.360;2023-05-29T01:02:57;14.40;99.90
20125;DHT22;10223;50.862;4.360;2023-05-29T01:05:24;14.40;99.90
20125;DHT22;10223;50.862;4.360;2023-05-29T01:07:51;14.40;99.90
20125;DHT22;10223;50.862;4.360;2023-05-29T01:10:19;14.30;99.90
20125;DHT22;10223;50.862;4.360;2023-05-29T01:12:49;14.30;99.90
20125;DHT22;10223;50.862;4.360;2023-05-29T01:15:28;14.30;99.90
20125;DHT22;10223;50.862;4.360;2023-05-29T01:18:16;14.20;99.90
20125;DHT22;10223;50.862;4.360;2023-05-29T01:20:51;14.10;99.90
20125;DHT22;10223;50.862;4.360;2023-05-29T01:23:40;14.00;99.90
20125;DHT22;10223;50.862;4.360;2023-05-29T01:26:32;14.00;99.90
20125;DHT22;10223;50.862;4.360;2023-05-29T01:29:02;14.00;99.90
20125;DHT22;10223;50.862;4.360;2023-05-29T01:31:31;13.90;99.90
20125;DHT22;10223;50.862;4.360;2023-05-29T01:33:59;14.00;99.90
20125;DHT22;10223;50.862;4.360;2023-05-29T01:36:27;14.00;99.90
20125;DHT22;10223;50.862;4.360;2023-05-29T01:38:56;14.10;99.90
20125;DHT22;10223;50.862;4.360;2023-05-29T01:41:24;14.10;99.90
20125;DHT22;10223;50.862;4.360;2023-05-29T01:43:53;14.00;99.90
20125;DHT22;10223;50.862;4.360;2023-05-29T01:46:23;14.00;99.90
20125;DHT22;10223;50.862;4.360;2023-05-29T01:48:51;14.00;99.90
20125;DHT22;10223;50.862;4.360;2023-05-29T01:51:19;13.90;99.90
20125;DHT22;10223;50.862;4.360;2023-05-29T01:53:46;13.80;99.90
20125;DHT22;10223;50.862;4.360;2023-05-29T01:56:13;13.80;99.90
20125;DHT22;10223;50.862;4.360;2023-05-29T01:58:41;13.80;99.90
20125;DHT22;10223;50.862;4.360;2023-05-29T02:01:09;13.80;99.90
20125;DHT22;10223;50.862;4.360;2023-05-29T02:03:36;13.80;99.90
20125;DHT22;10223;50.862;4.360;2023-05-29T02:06:03;13.80;99.90
20125;DHT22;10223;50.862;4.360;2023-05-29T02:08:32;13.80;99.90
20125;DHT22;10223;50.862;4.360;2023-05-29T02:10:59;13.70;99.90
20125;DHT22;10223;50.862;4.360;2023-05-29T02:13:26;13.60;99.90
20125;DHT22;10223;50.862;4.360;2023-05-29T02:15:52;13.70;99.90
20125;DHT22;10223;50.862;4.360;2023-05-29T02:18:21;13.80;99.90
20125;DHT22;10223;50.862;4.360;2023-05-29T02:20:49;13.80;99.90
20125;DHT22;10223;50.862;4.360;2023-05-29T02:23:16;13.60;99.90
20125;DHT22;10223;50.862;4.360;2023-05-29T02:25:42;13.40;99.90
20125;DHT22;10223;50.862;4.360;2023-05-29T02:28:09;13.50;99.90
20125;DHT22;10223;50.862;4.360;2023-05-29T02:30:36;13.50;99.90
20125;DHT22;10223;50.862;4.360;2023-05-29T02:33:03;13.50;99.90
20125;DHT22;10223;50.862;4.360;2023-05-29T02:35:33;13.50;99.90
20125;DHT22;10223;50.862;4.360;2023-05-29T02:38:00;13.50;99.90
20125;DHT22;10223;50.862;4.360;2023-05-29T02:40:27;13.50;99.90
20125;DHT22;10223;50.862;4.360;2023-05-29T02:42:54;13.50;99.90
20125;DHT22;10223;50.862;4.360;2023-05-29T02:45:21;13.50;99.90
20125;DHT22;10223;50.862;4.360;2023-05-29T02:47:48;13.40;99.90
20125;DHT22;10223;50.862;4.360;2023-05-29T02:50:15;13.30;99.90
20125;DHT22;10223;50.862;4.360;2023-05-29T02:52:44;13.20;99.90
20125;DHT22;10223;50.862;4.360;2023-05-29T02:55:11;13.30;99.90
20125;DHT22;10223;50.862;4.360;2023-05-29T02:57:38;13.30;99.90
20125;DHT22;10223;50.862;4.360;2023-05-29T03:00:07;13.40;99.90
20125;DHT22;10223;50.862;4.360;2023-05-29T03:02:34;13.30;99.90
20125;DHT22;10223;50.862;4.360;2023-05-29T03:05:01;13.20;99.90
20125;DHT22;10223;50.862;4.360;2023-05-29T03:07:28;13.10;99.90
20125;DHT22;10223;50.862;4.360;2023-05-29T03:09:59;13.00;99.90
20125;DHT22;10223;50.862;4.360;2023-05-29T03:12:26;13.00;99.90
20125;DHT22;10223;50.862;4.360;2023-05-29T03:14:53;12.90;99.90
20125;DHT22;10223;50.862;4.360;2023-05-29T03:17:21;13.10;99.90
20125;DHT22;10223;50.862;4.360;2023-05-29T03:19:48;13.10;99.90
20125;DHT22;10223;50.862;4.360;2023-05-29T03:22:16;13.10;99.90
20125;DHT22;10223;50.862;4.360;2023-05-29T03:24:43;13.00;99.90
20125;DHT22;10223;50.862;4.360;2023-05-29T03:27:11;13.00;99.90
20125;DHT22;10223;50.862;4.360;2023-05-29T03:29:38;12.90;99.90
20125;DHT22;10223;50.862;4.360;2023-05-29T03:32:05;12.80;99.90
20125;DHT22;10223;50.862;4.360;2023-05-29T03:34:32;12.60;99.90
20125;DHT22;10223;50.862;4.360;2023-05-29T03:36:59;12.60;99.90
20125;DHT22;10223;50.862;4.360;2023-05-29T03:39:27;12.60;99.90
20125;DHT22;10223;50.862;4.360;2023-05-29T03:41:54;12.60;99.90
20125;DHT22;10223;50.862;4.360;2023-05-29T03:44:22;12.60;99.90
20125;DHT22;10223;50.862;4.360;2023-05-29T03:46:50;12.70;99.90
20125;DHT22;10223;50.862;4.360;2023-05-29T03:49:17;12.60;99.90
20125;DHT22;10223;50.862;4.360;2023-05-29T03:51:44;12.60;99.90
20125;DHT22;10223;50.862;4.360;2023-05-29T03:54:11;12.50;99.90
20125;DHT22;10223;50.862;4.360;2023-05-29T03:56:38;12.40;99.90
20125;DHT22;10223;50.862;4.360;2023-05-29T03:59:05;12.40;99.90
20125;DHT22;10223;50.862;4.360;2023-05-29T04:01:33;12.30;99.90
20125;DHT22;10223;50.862;4.360;2023-05-29T04:04:01;12.30;99.90
20125;DHT22;10223;50.862;4.360;2023-05-29T04:06:28;12.30;99.90
20125;DHT22;10223;50.862;4.360;2023-05-29T04:08:55;12.40;99.90
20125;DHT22;10223;50.862;4.360;2023-05-29T04:11:22;12.50;99.90
20125;DHT22;10223;50.862;4.360;2023-05-29T04:13:49;12.50;99.90
20125;DHT22;10223;50.862;4.360;2023-05-29T04:16:16;12.70;99.90
20125;DHT22;10223;50.862;4.360;2023-05-29T04:18:44;12.50;99.90
20125;DHT22;10223;50.862;4.360;2023-05-29T04:21:11;12.60;99.90
20125;DHT22;10223;50.862;4.360;2023-05-29T04:23:38;12.50;99.90
20125;DHT22;10223;50.862;4.360;2023-05-29T04:26:05;12.30;99.90
20125;DHT22;10223;50.862;4.360;2023-05-29T04:28:32;12.30;99.90
20125;DHT22;10223;50.862;4.360;2023-05-29T04:30:59;12.10;99.90
20125;DHT22;10223;50.862;4.360;2023-05-29T04:33:26;12.10;99.90
20125;DHT22;10223;50.862;4.360;2023-05-29T04:35:55;12.20;99.90
20125;DHT22;10223;50.862;4.360;2023-05-29T04:38:22;12.30;99.90
20125;DHT22;10223;50.862;4.360;2023-05-29T04:40:51;12.40;99.90
20125;DHT22;10223;50.862;4.360;2023-05-29T04:43:18;12.30;99.90
20125;DHT22;10223;50.862;4.360;2023-05-29T04:45:44;12.30;99.90
20125;DHT22;10223;50.862;4.360;2023-05-29T04:48:11;12.40;99.90
20125;DHT22;10223;50.862;4.360;2023-05-29T04:50:38;12.20;99.90
20125;DHT22;10223;50.862;4.360;2023-05-29T04:53:08;12.20;99.90
20125;DHT22;10223;50.862;4.360;2023-05-29T04:55:35;12.10;99.90
20125;DHT22;10223;50.862;4.360;2023-05-29T04:58:02;12.20;99.90
20125;DHT22;10223;50.862;4.360;2023-05-29T05:00:29;12.30;99.90
20125;DHT22;10223;50.862;4.360;2023-05-29T05:02:56;12.30;99.90
20125;DHT22;10223;50.862;4.360;2023-05-29T05:05:23;12.30;99.90
20125;DHT22;10223;50.862;4.360;2023-05-29T05:07:50;12.30;99.90
20125;DHT22;10223;50.862;4.360;2023-05-29T05:10:18;12.30;99.90
20125;DHT22;10223;50.862;4.360;2023-05-29T05:12:45;12.30;99.90
20125;DHT22;10223;50.862;4.360;2023-05-29T05:15:12;12.20;99.90
20125;DHT22;10223;50.862;4.360;2023-05-29T05:17:39;12.40;99.90
20125;DHT22;10223;50.862;4.360;2023-05-29T05:20:07;12.40;99.90
20125;DHT22;10223;50.862;4.360;2023-05-29T05:22:34;12.30;99.90
20125;DHT22;10223;50.862;4.360;2023-05-29T05:25:01;12.20;99.90
20125;DHT22;10223;50.862;4.360;2023-05-29T05:27:32;12.50;99.90
20125;DHT22;10223;50.862;4.360;2023-05-29T05:29:59;12.40;99.90
20125;DHT22;10223;50.862;4.360;2023-05-29T05:32:26;12.60;99.90
20125;DHT22;10223;50.862;4.360;2023-05-29T05:34:53;12.50;99.90
20125;DHT22;10223;50.862;4.360;2023-05-29T05:37:20;12.40;99.90
20125;DHT22;10223;50.862;4.360;2023-05-29T05:39:48;12.20;99.90
20125;DHT22;10223;50.862;4.360;2023-05-29T05:42:18;12.40;99.90
20125;DHT22;10223;50.862;4.360;2023-05-29T05:44:47;12.60;99.90
20125;DHT22;10223;50.862;4.360;2023-05-29T05:47:14;12.60;99.90
20125;DHT22;10223;50.862;4.360;2023-05-29T05:49:44;12.70;99.90
20125;DHT22;10223;50.862;4.360;2023-05-29T05:52:11;12.70;99.90
20125;DHT22;10223;50.862;4.360;2023-05-29T05:54:37;12.80;99.90
20125;DHT22;10223;50.862;4.360;2023-05-29T05:57:05;12.80;99.90
20125;DHT22;10223;50.862;4.360;2023-05-29T05:59:32;12.70;99.90
20125;DHT22;10223;50.862;4.360;2023-05-29T06:02:01;12.60;99.90
20125;DHT22;10223;50.862;4.360;2023-05-29T06:04:29;12.60;99.90
20125;DHT22;10223;50.862;4.360;2023-05-29T06:06:56;12.70;99.90
20125;DHT22;10223;50.862;4.360;2023-05-29T06:09:22;12.80;99.90
20125;DHT22;10223;50.862;4.360;2023-05-29T06:11:50;12.80;99.90
20125;DHT22;10223;50.862;4.360;2023-05-29T06:14:17;12.80;99.90
20125;DHT22;10223;50.862;4.360;2023-05-29T06:16:44;12.80;99.90
20125;DHT22;10223;50.862;4.360;2023-05-29T06:19:13;12.90;99.90
20125;DHT22;10223;50.862;4.360;2023-05-29T06:21:40;13.00;99.90
20125;DHT22;10223;50.862;4.360;2023-05-29T06:24:07;13.00;99.90
20125;DHT22;10223;50.862;4.360;2023-05-29T06:26:35;13.10;99.90
20125;DHT22;10223;50.862;4.360;2023-05-29T06:29:02;13.20;99.90
20125;DHT22;10223;50.862;4.360;2023-05-29T06:31:31;13.10;99.90
20125;DHT22;10223;50.862;4.360;2023-05-29T06:33:58;13.20;99.90
20125;DHT22;10223;50.862;4.360;2023-05-29T06:36:27;13.20;99.90
20125;DHT22;10223;50.862;4.360;2023-05-29T06:38:54;13.40;99.90
20125;DHT22;10223;50.862;4.360;2023-05-29T06:41:20;13.40;99.90
20125;DHT22;10223;50.862;4.360;2023-05-29T06:43:48;13.40;99.90
20125;DHT22;10223;50.862;4.360;2023-05-29T06:46:15;13.40;99.90
20125;DHT22;10223;50.862;4.360;2023-05-29T06:48:42;13.50;99.90
20125;DHT22;10223;50.862;4.360;2023-05-29T06:51:09;13.50;99.90
20125;DHT22;10223;50.862;4.360;2023-05-29T06:53:39;13.60;99.90
20125;DHT22;10223;50.862;4.360;2023-05-29T06:56:06;13.60;99.90
20125;DHT22;10223;50.862;4.360;2023-05-29T06:58:33;13.60;99.90
20125;DHT22;10223;50.862;4.360;2023-05-29T07:01:01;13.60;99.90
20125;DHT22;10223;50.862;4.360;2023-05-29T07:03:28;13.70;99.90
20125;DHT22;10223;50.862;4.360;2023-05-29T07:05:55;13.60;99.90
20125;DHT22;10223;50.862;4.360;2023-05-29T07:08:23;13.50;99.90
20125;DHT22;10223;50.862;4.360;2023-05-29T07:10:51;13.70;99.90
20125;DHT22;10223;50.862;4.360;2023-05-29T07:13:18;13.90;99.90
20125;DHT22;10223;50.862;4.360;2023-05-29T07:15:46;13.90;99.90
20125;DHT22;10223;50.862;4.360;2023-05-29T07:18:13;13.90;99.90
20125;DHT22;10223;50.862;4.360;2023-05-29T07:20:43;14.00;99.90
20125;DHT22;10223;50.862;4.360;2023-05-29T07:23:10;14.10;99.90
20125;DHT22;10223;50.862;4.360;2023-05-29T07:25:37;14.40;99.90
20125;DHT22;10223;50.862;4.360;2023-05-29T07:28:05;14.80;99.90
20125;DHT22;10223;50.862;4.360;2023-05-29T07:30:32;15.00;99.90
20125;DHT22;10223;50.862;4.360;2023-05-29T07:32:59;15.20;99.90
20125;DHT22;10223;50.862;4.360;2023-05-29T07:35:26;15.10;99.90
20125;DHT22;10223;50.862;4.360;2023-05-29T07:37:53;15.30;99.90
20125;DHT22;10223;50.862;4.360;2023-05-29T07:40:20;15.60;99.90
20125;DHT22;10223;50.862;4.360;2023-05-29T07:42:47;15.50;99.90
20125;DHT22;10223;50.862;4.360;2023-05-29T07:45:15;15.70;99.90
20125;DHT22;10223;50.862;4.360;2023-05-29T07:47:42;15.80;99.90
20125;DHT22;10223;50.862;4.360;2023-05-29T07:50:10;16.00;99.90
20125;DHT22;10223;50.862;4.360;2023-05-29T07:52:37;16.20;99.90
20125;DHT22;10223;50.862;4.360;2023-05-29T07:55:04;16.20;99.90
20125;DHT22;10223;50.862;4.360;2023-05-29T07:57:31;16.40;99.90
20125;DHT22;10223;50.862;4.360;2023-05-29T07:59:58;16.70;99.90
20125;DHT22;10223;50.862;4.360;2023-05-29T08:02:27;16.90;99.90
20125;DHT22;10223;50.862;4.360;2023-05-29T08:04:54;17.00;99.90
20125;DHT22;10223;50.862;4.360;2023-05-29T08:07:20;17.10;99.90
20125;DHT22;10223;50.862;4.360;2023-05-29T08:09:47;17.10;99.90
20125;DHT22;10223;50.862;4.360;2023-05-29T08:12:14;16.70;99.90
20125;DHT22;10223;50.862;4.360;2023-05-29T08:14:41;16.80;99.90
20125;DHT22;10223;50.862;4.360;2023-05-29T08:17:08;16.70;99.90
20125;DHT22;10223;50.862;4.360;2023-05-29T08:19:36;16.70;99.90
20125;DHT22;10223;50.862;4.360;2023-05-29T08:22:03;17.00;99.90
20125;DHT22;10223;50.862;4.360;2023-05-29T08:24:31;17.00;99.90
20125;DHT22;10223;50.862;4.360;2023-05-29T08:26:58;17.10;99.90
20125;DHT22;10223;50.862;4.360;2023-05-29T08:29:25;17.30;99.90
20125;DHT22;10223;50.862;4.360;2023-05-29T08:31:52;17.30;99.90
20125;DHT22;10223;50.862;4.360;2023-05-29T08:34:19;17.50;99.90
20125;DHT22;10223;50.862;4.360;2023-05-29T08:36:47;17.80;99.90
20125;DHT22;10223;50.862;4.360;2023-05-29T08:39:17;17.80;99.90
20125;DHT22;10223;50.862;4.360;2023-05-29T08:41:51;17.80;99.90
20125;DHT22;10223;50.862;4.360;2023-05-29T08:44:22;17.80;99.90
20125;DHT22;10223;50.862;4.360;2023-05-29T08:46:51;17.60;99.90
20125;DHT22;10223;50.862;4.360;2023-05-29T08:49:21;17.70;99.90
20125;DHT22;10223;50.862;4.360;2023-05-29T08:51:57;17.90;99.90
20125;DHT22;10223;50.862;4.360;2023-05-29T08:54:31;18.10;99.90
20125;DHT22;10223;50.862;4.360;2023-05-29T08:56:59;18.10;99.90
20125;DHT22;10223;50.862;4.360;2023-05-29T08:59:27;18.00;99.90
20125;DHT22;10223;50.862;4.360;2023-05-29T09:01:56;18.30;99.90
20125;DHT22;10223;50.862;4.360;2023-05-29T09:04:23;18.30;99.90
20125;DHT22;10223;50.862;4.360;2023-05-29T09:06:51;18.00;99.90
20125;DHT22;10223;50.862;4.360;2023-05-29T09:09:20;18.30;99.90
20125;DHT22;10223;50.862;4.360;2023-05-29T09:11:51;18.40;99.90
20125;DHT22;10223;50.862;4.360;2023-05-29T09:14:35;18.60;99.90
20125;DHT22;10223;50.862;4.360;2023-05-29T09:17:03;18.70;99.90
20125;DHT22;10223;50.862;4.360;2023-05-29T09:19:31;18.70;99.90
20125;DHT22;10223;50.862;4.360;2023-05-29T09:22:04;18.80;99.90
20125;DHT22;10223;50.862;4.360;2023-05-29T09:24:32;18.80;99.90
20125;DHT22;10223;50.862;4.360;2023-05-29T09:27:00;18.80;99.90
20125;DHT22;10223;50.862;4.360;2023-05-29T09:29:27;18.90;99.90
20125;DHT22;10223;50.862;4.360;2023-05-29T09:31:57;18.70;99.90
20125;DHT22;10223;50.862;4.360;2023-05-29T09:34:24;18.90;99.90
20125;DHT22;10223;50.862;4.360;2023-05-29T09:36:52;19.00;99.90
20125;DHT22;10223;50.862;4.360;2023-05-29T09:39:20;18.90;99.90
20125;DHT22;10223;50.862;4.360;2023-05-29T09:41:47;18.60;99.90
20125;DHT22;10223;50.862;4.360;2023-05-29T09:44:15;18.60;99.90
20125;DHT22;10223;50.862;4.360;2023-05-29T09:46:42;18.50;99.90
20125;DHT22;10223;50.862;4.360;2023-05-29T09:49:13;18.50;99.90
20125;DHT22;10223;50.862;4.360;2023-05-29T09:51:42;18.50;99.90
20125;DHT22;10223;50.862;4.360;2023-05-29T09:54:14;18.70;99.90
20125;DHT22;10223;50.862;4.360;2023-05-29T09:56:43;18.90;99.90
20125;DHT22;10223;50.862;4.360;2023-05-29T09:59:11;19.10;99.90
20125;DHT22;10223;50.862;4.360;2023-05-29T10:01:40;19.50;99.90
20125;DHT22;10223;50.862;4.360;2023-05-29T10:04:09;19.60;99.90
20125;DHT22;10223;50.862;4.360;2023-05-29T10:06:41;19.10;99.90
20125;DHT22;10223;50.862;4.360;2023-05-29T10:09:10;19.20;99.90
20125;DHT22;10223;50.862;4.360;2023-05-29T10:11:43;19.30;99.90
20125;DHT22;10223;50.862;4.360;2023-05-29T10:14:14;19.40;99.90
20125;DHT22;10223;50.862;4.360;2023-05-29T10:16:43;19.20;99.90
20125;DHT22;10223;50.862;4.360;2023-05-29T10:19:14;19.30;99.90
20125;DHT22;10223;50.862;4.360;2023-05-29T10:21:42;19.20;99.90
20125;DHT22;10223;50.862;4.360;2023-05-29T10:24:10;19.20;99.90
20125;DHT22;10223;50.862;4.360;2023-05-29T10:26:39;19.50;99.90
20125;DHT22;10223;50.862;4.360;2023-05-29T10:29:14;19.50;99.90
20125;DHT22;10223;50.862;4.360;2023-05-29T10:31:51;19.60;99.90
20125;DHT22;10223;50.862;4.360;2023-05-29T10:34:28;19.70;99.90
20125;DHT22;10223;50.862;4.360;2023-05-29T10:37:06;19.70;99.90
20125;DHT22;10223;50.862;4.360;2023-05-29T10:39:34;20.00;99.90
20125;DHT22;10223;50.862;4.360;2023-05-29T10:42:01;20.00;99.90
20125;DHT22;10223;50.862;4.360;2023-05-29T10:44:41;20.20;99.90
20125;DHT22;10223;50.862;4.360;2023-05-29T10:47:08;19.90;99.90
20125;DHT22;10223;50.862;4.360;2023-05-29T10:49:37;19.70;99.90
20125;DHT22;10223;50.862;4.360;2023-05-29T10:52:05;19.80;99.90
20125;DHT22;10223;50.862;4.360;2023-05-29T10:54:49;19.80;99.90
20125;DHT22;10223;50.862;4.360;2023-05-29T10:57:17;19.70;99.90
20125;DHT22;10223;50.862;4.360;2023-05-29T10:59:46;20.10;99.90
20125;DHT22;10223;50.862;4.360;2023-05-29T11:02:18;20.40;99.90
20125;DHT22;10223;50.862;4.360;2023-05-29T11:05:04;20.30;99.90
20125;DHT22;10223;50.862;4.360;2023-05-29T11:07:35;20.40;99.90
20125;DHT22;10223;50.862;4.360;2023-05-29T11:10:12;20.50;99.90
20125;DHT22;10223;50.862;4.360;2023-05-29T11:12:56;20.70;99.90
20125;DHT22;10223;50.862;4.360;2023-05-29T11:15:24;20.70;99.90
20125;DHT22;10223;50.862;4.360;2023-05-29T11:17:52;20.70;99.90
20125;DHT22;10223;50.862;4.360;2023-05-29T11:20:28;21.00;99.90
20125;DHT22;10223;50.862;4.360;2023-05-29T11:23:04;21.20;99.90
20125;DHT22;10223;50.862;4.360;2023-05-29T11:25:35;21.00;99.90
20125;DHT22;10223;50.862;4.360;2023-05-29T11:28:03;21.10;99.90
20125;DHT22;10223;50.862;4.360;2023-05-29T11:30:43;21.00;99.90
20125;DHT22;10223;50.862;4.360;2023-05-29T11:33:16;20.80;99.90
20125;DHT22;10223;50.862;4.360;2023-05-29T11:35:46;21.00;99.90
20125;DHT22;10223;50.862;4.360;2023-05-29T11:38:15;20.80;99.90
20125;DHT22;10223;50.862;4.360;2023-05-29T11:40:42;20.70;99.90
20125;DHT22;10223;50.862;4.360;2023-05-29T11:43:11;20.90;99.90
20125;DHT22;10223;50.862;4.360;2023-05-29T11:45:38;20.80;99.90
20125;DHT22;10223;50.862;4.360;2023-05-29T11:48:07;20.90;99.90
20125;DHT22;10223;50.862;4.360;2023-05-29T11:50:36;20.90;99.90
20125;DHT22;10223;50.862;4.360;2023-05-29T11:53:05;21.00;99.90
20125;DHT22;10223;50.862;4.360;2023-05-29T11:55:32;20.90;99.90
20125;DHT22;10223;50.862;4.360;2023-05-29T11:58:00;21.00;99.90
20125;DHT22;10223;50.862;4.360;2023-05-29T12:00:31;21.50;99.90
20125;DHT22;10223;50.862;4.360;2023-05-29T12:02:58;21.50;99.90
20125;DHT22;10223;50.862;4.360;2023-05-29T12:05:30;21.70;99.90
20125;DHT22;10223;50.862;4.360;2023-05-29T12:07:58;21.60;99.90
20125;DHT22;10223;50.862;4.360;2023-05-29T12:10:27;21.10;99.90
20125;DHT22;10223;50.862;4.360;2023-05-29T12:12:56;21.00;99.90
20125;DHT22;10223;50.862;4.360;2023-05-29T12:15:23;20.90;99.90
20125;DHT22;10223;50.862;4.360;2023-05-29T12:17:50;21.30;99.90
20125;DHT22;10223;50.862;4.360;2023-05-29T12:20:18;21.50;99.90
20125;DHT22;10223;50.862;4.360;2023-05-29T12:22:47;21.70;99.90
20125;DHT22;10223;50.862;4.360;2023-05-29T12:25:15;21.80;99.90
20125;DHT22;10223;50.862;4.360;2023-05-29T12:27:44;21.80;99.90
20125;DHT22;10223;50.862;4.360;2023-05-29T12:30:13;21.60;99.90
20125;DHT22;10223;50.862;4.360;2023-05-29T12:32:42;21.50;99.90
20125;DHT22;10223;50.862;4.360;2023-05-29T12:35:13;21.60;99.90
20125;DHT22;10223;50.862;4.360;2023-05-29T12:37:45;21.40;99.90
20125;DHT22;10223;50.862;4.360;2023-05-29T12:40:18;21.50;99.90
20125;DHT22;10223;50.862;4.360;2023-05-29T12:42:46;21.40;99.90
20125;DHT22;10223;50.862;4.360;2023-05-29T12:45:13;21.40;99.90
20125;DHT22;10223;50.862;4.360;2023-05-29T12:47:50;21.30;99.90
20125;DHT22;10223;50.862;4.360;2023-05-29T12:50:24;21.40;99.90
20125;DHT22;10223;50.862;4.360;2023-05-29T12:52:58;21.50;99.90
20125;DHT22;10223;50.862;4.360;2023-05-29T12:55:29;21.50;99.90
20125;DHT22;10223;50.862;4.360;2023-05-29T12:57:58;21.50;99.90
20125;DHT22;10223;50.862;4.360;2023-05-29T13:00:25;21.50;99.90
20125;DHT22;10223;50.862;4.360;2023-05-29T13:02:52;21.40;99.90
20125;DHT22;10223;50.862;4.360;2023-05-29T13:05:19;21.60;99.90
20125;DHT22;10223;50.862;4.360;2023-05-29T13:07:48;21.90;99.90
20125;DHT22;10223;50.862;4.360;2023-05-29T13:10:16;22.30;99.90
20125;DHT22;10223;50.862;4.360;2023-05-29T13:12:44;22.50;99.90
20125;DHT22;10223;50.862;4.360;2023-05-29T13:15:13;22.70;99.90
20125;DHT22;10223;50.862;4.360;2023-05-29T13:17:41;23.20;99.90
20125;DHT22;10223;50.862;4.360;2023-05-29T13:20:09;23.30;99.90
20125;DHT22;10223;50.862;4.360;2023-05-29T13:22:37;22.50;99.90
20125;DHT22;10223;50.862;4.360;2023-05-29T13:25:05;22.40;99.90
20125;DHT22;10223;50.862;4.360;2023-05-29T13:27:34;22.70;99.90
20125;DHT22;10223;50.862;4.360;2023-05-29T13:30:04;23.20;99.90
20125;DHT22;10223;50.862;4.360;2023-05-29T13:32:32;23.70;99.90
20125;DHT22;10223;50.862;4.360;2023-05-29T13:34:59;22.80;99.90
20125;DHT22;10223;50.862;4.360;2023-05-29T13:37:26;22.90;99.90
20125;DHT22;10223;50.862;4.360;2023-05-29T13:39:53;22.90;99.90
20125;DHT22;10223;50.862;4.360;2023-05-29T13:42:21;23.00;99.90
20125;DHT22;10223;50.862;4.360;2023-05-29T13:44:48;23.20;99.90
20125;DHT22;10223;50.862;4.360;2023-05-29T13:47:17;23.80;99.90
20125;DHT22;10223;50.862;4.360;2023-05-29T13:49:44;23.80;99.90
20125;DHT22;10223;50.862;4.360;2023-05-29T13:52:10;24.20;99.90
20125;DHT22;10223;50.862;4.360;2023-05-29T13:54:38;24.40;99.90
20125;DHT22;10223;50.862;4.360;2023-05-29T13:57:06;25.00;99.90
20125;DHT22;10223;50.862;4.360;2023-05-29T13:59:34;25.20;99.90
20125;DHT22;10223;50.862;4.360;2023-05-29T14:02:01;24.70;99.90
20125;DHT22;10223;50.862;4.360;2023-05-29T14:04:30;24.30;99.90
20125;DHT22;10223;50.862;4.360;2023-05-29T14:06:57;24.40;99.90
20125;DHT22;10223;50.862;4.360;2023-05-29T14:09:24;24.20;99.90
20125;DHT22;10223;50.862;4.360;2023-05-29T14:11:53;24.50;99.90
20125;DHT22;10223;50.862;4.360;2023-05-29T14:14:20;24.50;99.90
20125;DHT22;10223;50.862;4.360;2023-05-29T14:16:48;25.00;99.90
20125;DHT22;10223;50.862;4.360;2023-05-29T14:19:15;25.30;99.90
20125;DHT22;10223;50.862;4.360;2023-05-29T14:21:43;25.70;99.90
20125;DHT22;10223;50.862;4.360;2023-05-29T14:24:10;25.70;99.90
20125;DHT22;10223;50.862;4.360;2023-05-29T14:26:38;26.30;99.90
20125;DHT22;10223;50.862;4.360;2023-05-29T14:29:05;26.50;99.70
20125;DHT22;10223;50.862;4.360;2023-05-29T14:31:32;25.30;99.90
20125;DHT22;10223;50.862;4.360;2023-05-29T14:33:59;25.30;99.90
20125;DHT22;10223;50.862;4.360;2023-05-29T14:36:26;25.30;99.90
20125;DHT22;10223;50.862;4.360;2023-05-29T14:38:54;25.70;99.90
20125;DHT22;10223;50.862;4.360;2023-05-29T14:41:21;25.10;99.90
20125;DHT22;10223;50.862;4.360;2023-05-29T14:43:49;25.30;99.90
20125;DHT22;10223;50.862;4.360;2023-05-29T14:46:17;24.50;99.90
20125;DHT22;10223;50.862;4.360;2023-05-29T14:48:44;24.30;99.90
20125;DHT22;10223;50.862;4.360;2023-05-29T14:51:13;23.70;99.90
20125;DHT22;10223;50.862;4.360;2023-05-29T14:53:41;23.60;99.90
20125;DHT22;10223;50.862;4.360;2023-05-29T14:56:11;23.80;99.90
20125;DHT22;10223;50.862;4.360;2023-05-29T14:58:38;23.80;99.90
20125;DHT22;10223;50.862;4.360;2023-05-29T15:01:06;23.90;99.90
20125;DHT22;10223;50.862;4.360;2023-05-29T15:03:34;23.30;99.90
20125;DHT22;10223;50.862;4.360;2023-05-29T15:06:04;22.70;99.90
20125;DHT22;10223;50.862;4.360;2023-05-29T15:08:32;23.00;99.90
20125;DHT22;10223;50.862;4.360;2023-05-29T15:11:00;22.70;99.90
20125;DHT22;10223;50.862;4.360;2023-05-29T15:13:29;22.90;99.90
20125;DHT22;10223;50.862;4.360;2023-05-29T15:15:56;23.00;99.90
20125;DHT22;10223;50.862;4.360;2023-05-29T15:18:25;23.10;99.90
20125;DHT22;10223;50.862;4.360;2023-05-29T15:20:52;22.80;99.90
20125;DHT22;10223;50.862;4.360;2023-05-29T15:23:19;22.30;99.90
20125;DHT22;10223;50.862;4.360;2023-05-29T15:25:48;22.30;99.90
20125;DHT22;10223;50.862;4.360;2023-05-29T15:28:15;22.00;99.90
20125;DHT22;10223;50.862;4.360;2023-05-29T15:30:44;21.80;99.90
20125;DHT22;10223;50.862;4.360;2023-05-29T15:33:12;21.60;99.90
20125;DHT22;10223;50.862;4.360;2023-05-29T15:35:39;21.80;99.90
20125;DHT22;10223;50.862;4.360;2023-05-29T15:38:08;21.90;99.90